Time;durP1;ratioP1;P1;durP2;ratioP2;P2;SDS_P1;SDS_P2;PMS_P1;PMS_P2;Temp;Humidity;BMP_temperature;BMP_pressure;BME280_temperature;BME280_humidity;BME280_pressure;Samples;Min_cycle;Max_cycle;Signal;HPM_P1;HPM_P2
2021/12/29 00:01:21;;;;;;;11.77;2.75;;;-1.30;99.90;;;;;;4973012;28;20023;-72
2021/12/29 00:03:46;;;;;;;4.47;2.10;;;-1.30;99.90;;;;;;4972818;28;20540;-72
2021/12/29 00:06:12;;;;;;;4.55;2.33;;;-1.30;99.90;;;;;;4972947;28;20094;-72
2021/12/29 00:08:38;;;;;;;3.40;2.40;;;-1.30;99.90;;;;;;4973048;28;20358;-72
2021/12/29 00:11:04;;;;;;;7.47;2.17;;;-1.30;99.90;;;;;;4972929;28;20035;-72
2021/12/29 00:13:30;;;;;;;6.57;2.13;;;-1.30;99.90;;;;;;4973117;28;20382;-72
2021/12/29 00:15:57;;;;;;;4.43;2.13;;;-1.30;99.90;;;;;;4972655;28;20043;-72
2021/12/29 00:18:34;;;;;;;6.50;2.60;;;-1.30;99.90;;;;;;4973141;28;20023;-72
2021/12/29 00:21:03;;;;;;;5.93;2.03;;;-1.30;99.90;;;;;;4972897;28;20117;-72
2021/12/29 00:23:29;;;;;;;5.78;2.13;;;-1.20;99.90;;;;;;4972763;28;20023;-72
2021/12/29 00:25:55;;;;;;;9.45;2.50;;;-1.30;99.90;;;;;;4972638;28;20499;-72
2021/12/29 00:28:21;;;;;;;6.78;2.30;;;-1.30;99.90;;;;;;4972590;28;20034;-72
2021/12/29 00:30:48;;;;;;;4.85;2.40;;;-1.30;99.90;;;;;;4975069;28;20031;-71
2021/12/29 00:33:14;;;;;;;7.05;2.53;;;-1.30;99.90;;;;;;4976239;28;20110;-72
2021/12/29 00:35:41;;;;;;;4.75;2.40;;;-1.30;99.90;;;;;;4975987;28;20111;-71
2021/12/29 00:38:10;;;;;;;4.32;2.38;;;-1.20;99.90;;;;;;4975869;28;20050;-71
2021/12/29 00:40:37;;;;;;;4.28;2.00;;;-1.20;99.90;;;;;;4976192;28;20462;-71
2021/12/29 00:43:05;;;;;;;7.88;2.30;;;-1.20;99.90;;;;;;4976317;28;20058;-71
2021/12/29 00:45:37;;;;;;;6.20;2.17;;;-1.20;99.90;;;;;;4976004;28;20037;-71
2021/12/29 00:48:05;;;;;;;3.95;2.38;;;-1.20;99.90;;;;;;4976304;28;20038;-71
2021/12/29 00:50:33;;;;;;;7.28;2.50;;;-1.20;99.90;;;;;;4976009;28;20038;-72
2021/12/29 00:53:00;;;;;;;6.35;2.63;;;-1.20;99.90;;;;;;4975927;28;20038;-71
2021/12/29 00:55:26;;;;;;;2.72;1.90;;;-1.20;99.90;;;;;;4975933;28;20031;-74
2021/12/29 00:57:51;;;;;;;7.38;2.60;;;-1.20;99.90;;;;;;4975693;28;20119;-75
2021/12/29 01:00:21;;;;;;;4.78;2.47;;;-1.20;99.90;;;;;;4975873;28;20474;-75
2021/12/29 01:02:48;;;;;;;3.97;2.03;;;-1.20;99.90;;;;;;4975801;28;20084;-75
2021/12/29 01:05:16;;;;;;;10.32;2.53;;;-1.20;99.90;;;;;;4975608;28;20051;-75
2021/12/29 01:07:44;;;;;;;5.50;2.25;;;-1.20;99.90;;;;;;4975701;28;20037;-75
2021/12/29 01:10:12;;;;;;;4.85;2.60;;;-1.20;99.90;;;;;;4975695;28;20375;-74
2021/12/29 01:12:46;;;;;;;4.90;2.67;;;-1.20;99.90;;;;;;4975440;28;20102;-74
2021/12/29 01:15:14;;;;;;;5.18;2.05;;;-1.20;99.90;;;;;;4975782;28;20452;-74
2021/12/29 01:17:40;;;;;;;3.88;2.28;;;-1.20;99.90;;;;;;4975294;28;20413;-74
2021/12/29 01:20:06;;;;;;;3.38;2.00;;;-1.20;99.90;;;;;;4975752;28;20127;-73
2021/12/29 01:22:32;;;;;;;8.57;2.63;;;-1.20;99.90;;;;;;4975287;28;20070;-73
2021/12/29 01:24:58;;;;;;;7.93;2.58;;;-1.20;99.90;;;;;;4973889;28;20046;-73
2021/12/29 01:27:24;;;;;;;4.72;2.42;;;-1.20;99.90;;;;;;4975548;28;20557;-73
2021/12/29 01:29:49;;;;;;;6.35;2.53;;;-1.20;99.90;;;;;;4975325;28;20026;-73
2021/12/29 01:32:15;;;;;;;4.07;2.28;;;-1.20;99.90;;;;;;4975226;28;20046;-73
2021/12/29 01:34:41;;;;;;;7.93;2.30;;;-1.20;99.90;;;;;;4974978;28;20058;-73
2021/12/29 01:37:07;;;;;;;5.63;2.20;;;-1.20;99.90;;;;;;4974875;28;20053;-73
2021/12/29 01:39:33;;;;;;;5.32;2.10;;;-1.20;99.90;;;;;;4974988;28;20047;-73
2021/12/29 01:41:59;;;;;;;6.10;2.92;;;-1.20;99.90;;;;;;4973849;28;20030;-73
2021/12/29 01:44:27;;;;;;;9.13;2.67;;;-1.10;99.90;;;;;;4974910;28;20023;-73
2021/12/29 01:46:55;;;;;;;4.40;2.35;;;-1.20;99.90;;;;;;4975028;28;20071;-73
2021/12/29 01:49:21;;;;;;;4.53;2.38;;;-1.10;99.90;;;;;;4974883;28;20019;-73
2021/12/29 01:51:50;;;;;;;7.03;2.70;;;-1.10;99.90;;;;;;4974950;28;20430;-73
2021/12/29 01:54:24;;;;;;;4.57;2.50;;;-1.10;99.90;;;;;;4975023;28;20035;-73
2021/12/29 01:56:54;;;;;;;8.00;2.63;;;-1.10;99.90;;;;;;4973740;28;20041;-73
2021/12/29 01:59:23;;;;;;;6.03;2.35;;;-1.10;99.90;;;;;;4974790;28;20019;-73
2021/12/29 02:01:49;;;;;;;7.03;2.63;;;-1.10;99.90;;;;;;4973341;28;20122;-73
2021/12/29 02:04:15;;;;;;;5.90;2.50;;;-1.00;99.90;;;;;;4974923;28;20102;-73
2021/12/29 02:06:40;;;;;;;5.93;2.70;;;-1.00;99.90;;;;;;4974732;28;20027;-73
2021/12/29 02:09:07;;;;;;;4.57;2.40;;;-1.00;99.90;;;;;;4974599;28;20135;-73
2021/12/29 02:11:34;;;;;;;4.85;2.38;;;-1.00;99.90;;;;;;4974827;28;20031;-72
2021/12/29 02:14:04;;;;;;;4.15;2.38;;;-1.00;99.90;;;;;;4974524;28;20386;-72
2021/12/29 02:16:30;;;;;;;4.27;2.43;;;-1.00;99.90;;;;;;4974410;28;20201;-73
2021/12/29 02:19:08;;;;;;;4.25;2.63;;;-1.00;99.90;;;;;;4974150;28;20037;-73
2021/12/29 02:21:35;;;;;;;7.28;2.88;;;-1.00;99.90;;;;;;4974196;28;20392;-73
2021/12/29 02:55:38;;;;;;;3.90;2.50;;;-0.80;99.90;;;;;;4973003;28;20062;-73
2021/12/29 02:58:04;;;;;;;6.18;2.55;;;-0.80;99.90;;;;;;4973770;28;20031;-73
2021/12/29 03:00:30;;;;;;;7.97;2.90;;;-0.80;99.90;;;;;;4973641;28;20386;-73
2021/12/29 03:02:55;;;;;;;4.43;2.65;;;-0.80;99.90;;;;;;4973433;28;20035;-73
2021/12/29 03:38:56;;;;;;;5.80;2.80;;;-0.70;99.90;;;;;;4947796;23;20511;-70
2021/12/29 03:41:24;;;;;;;6.88;3.45;;;-0.70;99.90;;;;;;4934665;29;20075;-70
2021/12/29 03:43:50;;;;;;;6.00;3.20;;;-0.70;99.90;;;;;;4934561;29;20016;-70
2021/12/29 03:46:16;;;;;;;6.00;3.10;;;-0.70;99.90;;;;;;4934715;29;20411;-70
2021/12/29 03:48:44;;;;;;;7.05;3.03;;;-0.70;99.90;;;;;;4934800;29;20028;-70
2021/12/29 03:51:11;;;;;;;8.70;2.97;;;-0.70;99.90;;;;;;4934678;29;20373;-70
2021/12/29 03:53:37;;;;;;;6.07;3.28;;;-0.70;99.90;;;;;;4934749;29;20028;-71
2021/12/29 03:56:05;;;;;;;6.15;2.97;;;-0.70;99.90;;;;;;4934535;29;20064;-70
2021/12/29 03:58:31;;;;;;;6.32;3.17;;;-0.70;99.90;;;;;;4934518;29;20470;-70
2021/12/29 04:01:04;;;;;;;7.00;3.50;;;-0.70;99.90;;;;;;4934696;29;20387;-70
2021/12/29 04:03:29;;;;;;;8.25;3.05;;;-0.70;99.90;;;;;;4934438;29;20119;-70
2021/12/29 04:05:55;;;;;;;7.70;3.22;;;-0.70;99.90;;;;;;4937187;29;20110;-70
2021/12/29 04:08:21;;;;;;;6.80;3.38;;;-0.70;99.90;;;;;;4938055;29;20475;-71
2021/12/29 04:10:47;;;;;;;7.55;3.35;;;-0.70;99.90;;;;;;4938235;29;20063;-70
2021/12/29 04:13:12;;;;;;;4.93;2.70;;;-0.70;99.90;;;;;;4938292;29;20079;-70
2021/12/29 04:15:38;;;;;;;6.70;3.30;;;-0.70;99.90;;;;;;4938159;29;20036;-70
2021/12/29 04:18:14;;;;;;;7.22;3.33;;;-0.70;99.90;;;;;;4938027;29;20399;-70
2021/12/29 04:20:57;;;;;;;7.70;3.60;;;-0.70;99.90;;;;;;4938193;29;20020;-70
2021/12/29 04:23:26;;;;;;;7.03;3.20;;;-0.70;99.90;;;;;;4938098;29;20028;-70
2021/12/29 04:25:54;;;;;;;6.85;2.78;;;-0.70;99.90;;;;;;4938015;29;20383;-70
2021/12/29 04:28:23;;;;;;;5.15;2.92;;;-0.70;99.90;;;;;;4937779;29;20020;-71
2021/12/29 04:30:50;;;;;;;5.10;3.22;;;-0.70;99.90;;;;;;4938041;29;20024;-70
2021/12/29 04:33:17;;;;;;;6.45;2.90;;;-0.70;99.90;;;;;;4938072;29;20391;-70
2021/12/29 04:35:44;;;;;;;7.45;2.80;;;-0.80;99.90;;;;;;4937711;29;20036;-70
2021/12/29 04:38:10;;;;;;;5.95;3.00;;;-0.80;99.90;;;;;;4937402;29;20055;-70
2021/12/29 04:40:36;;;;;;;7.60;2.97;;;-0.80;99.90;;;;;;4937796;29;20026;-70
2021/12/29 04:43:02;;;;;;;9.23;3.22;;;-0.80;99.90;;;;;;4936308;29;20399;-70
2021/12/29 04:45:28;;;;;;;7.32;3.17;;;-0.80;99.90;;;;;;4937534;29;20503;-70
2021/12/29 04:47:54;;;;;;;5.50;2.88;;;-0.80;99.90;;;;;;4937514;29;20090;-70
2021/12/29 04:50:27;;;;;;;5.80;3.05;;;-0.80;99.90;;;;;;4937505;29;20155;-70
2021/12/29 04:52:59;;;;;;;5.47;2.75;;;-0.80;99.90;;;;;;4937755;29;20036;-70
2021/12/29 04:55:27;;;;;;;5.68;3.00;;;-0.70;99.90;;;;;;4937302;29;20030;-70
2021/12/29 04:57:53;;;;;;;6.22;3.03;;;-0.70;99.90;;;;;;4937347;29;20035;-70
2021/12/29 05:00:21;;;;;;;7.28;3.05;;;-0.70;99.90;;;;;;4937188;29;20035;-70
2021/12/29 05:02:47;;;;;;;7.13;3.45;;;-0.70;99.90;;;;;;4935988;29;20495;-70
2021/12/29 05:05:39;;;;;;;6.47;3.00;;;-0.70;99.90;;;;;;4937303;29;20036;-70
2021/12/29 05:10:51;;;;;;;5.32;3.30;;;-0.60;99.90;;;;;;4937519;29;20112;-69
2021/12/29 05:13:17;;;;;;;5.75;3.22;;;-0.60;99.90;;;;;;4937213;29;20042;-71
2021/12/29 05:15:43;;;;;;;5.05;3.20;;;-0.60;99.90;;;;;;4937237;29;20039;-70
2021/12/29 05:18:10;;;;;;;4.82;3.03;;;-0.60;99.90;;;;;;4937011;29;20498;-71
2021/12/29 05:20:37;;;;;;;5.05;3.05;;;-0.50;99.90;;;;;;4937010;29;20024;-71
2021/12/29 05:23:03;;;;;;;6.05;3.38;;;-0.60;99.90;;;;;;4936995;29;20035;-71
2021/12/29 05:25:29;;;;;;;5.97;3.47;;;-0.50;99.90;;;;;;4936905;29;20030;-71
2021/12/29 05:27:55;;;;;;;8.75;3.60;;;-0.60;99.90;;;;;;4936761;29;20479;-70
2021/12/29 05:30:22;;;;;;;8.95;3.45;;;-0.60;99.90;;;;;;4936740;29;20035;-70
2021/12/29 05:32:48;;;;;;;6.72;2.83;;;-0.60;99.90;;;;;;4936842;29;20031;-70
2021/12/29 05:35:14;;;;;;;9.60;4.55;;;-0.60;99.90;;;;;;4936717;29;20042;-68
2021/12/29 05:37:40;;;;;;;5.93;3.55;;;-0.60;99.90;;;;;;4936343;29;20052;-70
2021/12/29 05:40:08;;;;;;;6.90;3.08;;;-0.60;99.90;;;;;;4936927;29;20034;-68
2021/12/29 05:42:34;;;;;;;6.82;3.40;;;-0.30;99.90;;;;;;4936278;29;20067;-68
2021/12/29 05:45:11;;;;;;;7.20;3.55;;;0.00;99.90;;;;;;4936225;29;20058;-66
2021/12/29 05:47:37;;;;;;;9.40;4.13;;;-0.10;99.90;;;;;;4936278;29;20039;-68
2021/12/29 05:50:07;;;;;;;7.68;3.45;;;-0.30;99.90;;;;;;4936404;29;20030;-72
2021/12/29 05:52:33;;;;;;;5.57;3.95;;;-0.40;99.90;;;;;;4936334;29;20525;-71
2021/12/29 05:54:59;;;;;;;14.65;8.18;;;-0.40;99.90;;;;;;4936269;29;20031;-73
2021/12/29 05:57:24;;;;;;;10.13;5.15;;;-0.40;99.90;;;;;;4935639;29;20506;-70
2021/12/29 05:59:50;;;;;;;7.45;3.80;;;-0.40;99.90;;;;;;4935698;29;20024;-71
2021/12/29 06:02:16;;;;;;;8.40;4.25;;;-0.40;99.90;;;;;;4934946;29;20024;-73
2021/12/29 06:04:42;;;;;;;6.03;3.58;;;-0.40;99.90;;;;;;4934274;29;20042;-70
2021/12/29 06:07:07;;;;;;;16.15;7.55;;;-0.50;99.90;;;;;;4933750;29;20032;-70
2021/12/29 06:09:33;;;;;;;8.98;4.10;;;-0.50;99.90;;;;;;4935095;29;20487;-70
2021/12/29 06:11:59;;;;;;;6.03;3.58;;;-0.50;99.90;;;;;;4935509;29;20016;-70
2021/12/29 06:14:24;;;;;;;9.77;5.13;;;-0.50;99.90;;;;;;4935382;29;20489;-70
2021/12/29 06:16:50;;;;;;;6.75;4.00;;;-0.50;99.90;;;;;;4935694;29;20036;-70
2021/12/29 06:19:16;;;;;;;9.35;3.92;;;-0.50;99.90;;;;;;4935708;29;20031;-73
2021/12/29 06:21:42;;;;;;;14.75;3.38;;;-0.50;99.90;;;;;;4935845;29;20023;-75
2021/12/29 06:24:08;;;;;;;6.47;3.55;;;-0.50;99.90;;;;;;4936078;29;20032;-70
2021/12/29 06:26:34;;;;;;;9.80;3.60;;;-0.50;99.90;;;;;;4935614;29;20034;-69
2021/12/29 06:29:01;;;;;;;7.10;3.20;;;-0.30;99.90;;;;;;4935116;29;20531;-69
2021/12/29 06:31:27;;;;;;;7.20;3.30;;;-0.30;99.90;;;;;;4935372;29;20499;-69
2021/12/29 06:33:53;;;;;;;8.30;4.32;;;-0.40;99.90;;;;;;4935512;29;20036;-69
2021/12/29 06:36:19;;;;;;;9.05;3.85;;;-0.40;99.90;;;;;;4935423;29;20046;-69
2021/12/29 06:38:45;;;;;;;8.07;3.65;;;-0.40;99.90;;;;;;4933975;29;20115;-69
2021/12/29 06:41:10;;;;;;;10.25;4.63;;;-0.40;99.90;;;;;;4935486;29;20468;-69
2021/12/29 06:43:36;;;;;;;6.75;3.92;;;-0.50;99.90;;;;;;4935379;29;20030;-69
2021/12/29 06:46:02;;;;;;;12.73;4.68;;;-0.40;99.90;;;;;;4935009;29;20122;-69
2021/12/29 06:48:28;;;;;;;8.63;4.00;;;-0.40;99.90;;;;;;4935327;29;20104;-69
2021/12/29 06:50:54;;;;;;;8.77;3.60;;;-0.40;99.90;;;;;;4935462;29;20047;-69
2021/12/29 06:53:20;;;;;;;10.05;4.63;;;-0.40;99.90;;;;;;4935196;29;20537;-69
2021/12/29 06:55:45;;;;;;;13.77;4.75;;;-0.40;99.90;;;;;;4935564;29;20122;-69
2021/12/29 06:58:11;;;;;;;9.98;4.95;;;-0.40;99.90;;;;;;4935111;29;20494;-70
2021/12/29 07:00:37;;;;;;;9.65;4.57;;;-0.40;99.90;;;;;;4934992;29;20044;-70
2021/12/29 07:03:04;;;;;;;10.82;3.63;;;-0.40;99.90;;;;;;4935037;29;20038;-70
2021/12/29 07:05:29;;;;;;;9.80;3.95;;;-0.40;99.90;;;;;;4935200;29;20034;-71
2021/12/29 07:07:56;;;;;;;9.52;3.95;;;-0.40;99.90;;;;;;4933728;29;20467;-70
2021/12/29 07:10:22;;;;;;;11.18;5.38;;;-0.40;99.90;;;;;;4935020;29;20020;-69
2021/12/29 07:12:48;;;;;;;19.17;11.43;;;-0.40;99.90;;;;;;4935084;29;20078;-72
2021/12/29 07:15:15;;;;;;;16.95;7.85;;;-0.40;99.90;;;;;;4934871;29;20483;-72
2021/12/29 07:17:41;;;;;;;24.60;12.00;;;-0.20;99.90;;;;;;4934855;29;20146;-73
2021/12/29 07:20:07;;;;;;;13.27;6.10;;;0.30;99.90;;;;;;4934962;29;20502;-73
2021/12/29 07:22:33;;;;;;;11.20;4.05;;;0.20;99.90;;;;;;4934745;29;20051;-73
2021/12/29 07:24:58;;;;;;;7.82;3.85;;;0.10;99.90;;;;;;4934907;29;20060;-73
2021/12/29 07:27:24;;;;;;;6.28;3.50;;;0.10;99.90;;;;;;4934726;29;20090;-71
2021/12/29 07:29:50;;;;;;;5.97;3.78;;;0.00;99.90;;;;;;4934915;29;20031;-69
2021/12/29 07:32:15;;;;;;;5.05;3.63;;;0.00;99.90;;;;;;4934892;29;20039;-71
2021/12/29 07:34:41;;;;;;;5.88;3.97;;;-0.10;99.90;;;;;;4934626;29;20491;-71
2021/12/29 07:37:07;;;;;;;6.82;3.97;;;-0.10;99.90;;;;;;4934523;29;20093;-70
2021/12/29 07:39:33;;;;;;;10.38;4.20;;;-0.20;99.90;;;;;;4933828;29;20062;-70
2021/12/29 07:41:59;;;;;;;7.40;4.22;;;-0.20;99.90;;;;;;4938767;29;20059;-70
2021/12/29 07:44:26;;;;;;;7.97;3.85;;;-0.20;99.90;;;;;;4938547;29;20077;-71
2021/12/29 07:46:55;;;;;;;9.50;3.95;;;-0.20;99.90;;;;;;4938726;29;20069;-71
2021/12/29 07:49:22;;;;;;;9.40;4.25;;;0.60;99.90;;;;;;4937184;29;20472;-71
2021/12/29 07:51:48;;;;;;;7.38;4.82;;;1.40;99.90;;;;;;4938484;29;20483;-72
2021/12/29 07:54:14;;;;;;;13.40;5.53;;;1.20;99.90;;;;;;4938437;29;20058;-71
2021/12/29 07:56:41;;;;;;;12.63;8.57;;;0.90;99.90;;;;;;4938310;29;20043;-70
2021/12/29 07:59:07;;;;;;;10.75;6.82;;;0.70;99.90;;;;;;4938625;29;20031;-70
2021/12/29 08:01:33;;;;;;;13.40;7.55;;;0.50;99.90;;;;;;4938342;29;20031;-71
2021/12/29 08:03:59;;;;;;;9.30;4.80;;;0.40;99.90;;;;;;4938399;29;20480;-71
2021/12/29 08:06:25;;;;;;;10.02;5.60;;;0.30;99.90;;;;;;4938226;29;20498;-70
2021/12/29 08:08:50;;;;;;;8.05;3.60;;;0.20;99.90;;;;;;4937119;29;20032;-72
2021/12/29 08:11:19;;;;;;;10.18;4.68;;;0.20;99.90;;;;;;4938289;29;20032;-72
2021/12/29 08:13:45;;;;;;;10.10;5.07;;;0.20;99.90;;;;;;4938123;29;20562;-71
2021/12/29 08:16:11;;;;;;;8.38;3.83;;;0.10;99.90;;;;;;4938182;29;20039;-69
2021/12/29 08:18:37;;;;;;;5.65;3.58;;;0.10;99.90;;;;;;4936790;29;20395;-69
2021/12/29 08:21:03;;;;;;;8.18;4.18;;;0.10;99.90;;;;;;4938486;29;20391;-69
2021/12/29 08:23:29;;;;;;;7.72;3.63;;;0.10;99.90;;;;;;4937992;29;20515;-68
2021/12/29 08:25:54;;;;;;;6.07;3.60;;;0.10;99.90;;;;;;4936870;29;20028;-69
2021/12/29 08:28:22;;;;;;;10.80;4.03;;;0.10;99.90;;;;;;4936649;29;20024;-68
2021/12/29 08:30:48;;;;;;;8.38;3.63;;;0.00;99.90;;;;;;4936802;29;20030;-68
2021/12/29 08:33:14;;;;;;;8.40;3.50;;;0.00;99.90;;;;;;4937013;29;20416;-70
2021/12/29 08:35:40;;;;;;;10.95;5.50;;;0.20;99.90;;;;;;4936994;29;20087;-68
2021/12/29 08:38:06;;;;;;;8.55;4.95;;;0.50;99.90;;;;;;4937122;29;20047;-69
2021/12/29 08:40:32;;;;;;;7.45;3.47;;;1.30;99.90;;;;;;4937046;29;20024;-69
2021/12/29 08:43:00;;;;;;;5.60;3.10;;;1.30;99.90;;;;;;4937565;29;20055;-68
2021/12/29 08:45:27;;;;;;;5.32;3.33;;;1.10;99.90;;;;;;4937643;29;20095;-70
2021/12/29 08:47:57;;;;;;;7.32;3.60;;;3.20;99.90;;;;;;4937460;29;20368;-69
2021/12/29 08:50:25;;;;;;;8.07;3.53;;;3.60;99.90;;;;;;4936874;29;20024;-71
2021/12/29 08:52:51;;;;;;;6.60;3.25;;;3.20;99.90;;;;;;4937475;29;20034;-69
2021/12/29 08:55:17;;;;;;;6.07;2.90;;;3.40;99.90;;;;;;4937452;29;20032;-70
2021/12/29 08:57:45;;;;;;;5.93;2.95;;;2.80;99.90;;;;;;4937172;29;20151;-69
2021/12/29 09:00:13;;;;;;;5.38;3.22;;;2.30;99.90;;;;;;4937375;29;20027;-70
2021/12/29 09:02:39;;;;;;;5.03;3.00;;;1.90;99.90;;;;;;4935915;29;20027;-69
2021/12/29 09:05:06;;;;;;;5.20;3.17;;;1.60;99.90;;;;;;4937020;29;20020;-70
2021/12/29 09:07:31;;;;;;;6.25;3.30;;;1.50;99.90;;;;;;4936430;29;20491;-70
2021/12/29 09:09:57;;;;;;;5.00;3.50;;;1.30;99.90;;;;;;4936528;29;20032;-71
2021/12/29 09:12:23;;;;;;;6.75;3.63;;;1.20;99.90;;;;;;4936164;29;20047;-70
2021/12/29 09:14:49;;;;;;;7.15;3.63;;;1.10;99.90;;;;;;4937088;29;20031;-70
2021/12/29 09:17:15;;;;;;;8.95;3.85;;;1.10;99.90;;;;;;4937039;29;20498;-70
2021/12/29 09:19:42;;;;;;;6.70;3.67;;;1.10;99.90;;;;;;4935584;29;20383;-70
2021/12/29 09:22:08;;;;;;;5.00;3.65;;;1.10;99.90;;;;;;4936962;29;20035;-70
2021/12/29 09:24:34;;;;;;;11.25;3.67;;;1.00;99.90;;;;;;4936419;29;20024;-70
2021/12/29 09:27:00;;;;;;;8.57;4.32;;;1.00;99.90;;;;;;4936715;29;20024;-70
2021/12/29 09:29:26;;;;;;;9.18;5.50;;;0.90;99.90;;;;;;4936605;29;20028;-73
2021/12/29 09:31:52;;;;;;;10.82;5.22;;;0.90;99.90;;;;;;4936797;29;20031;-70
2021/12/29 09:34:18;;;;;;;10.20;5.55;;;0.90;99.90;;;;;;4936758;29;20099;-69
2021/12/29 09:36:44;;;;;;;7.88;4.60;;;0.80;99.90;;;;;;4936271;29;20110;-69
2021/12/29 09:39:09;;;;;;;6.75;4.38;;;0.80;99.90;;;;;;4936769;29;20054;-68
2021/12/29 09:41:36;;;;;;;7.03;4.40;;;0.80;99.90;;;;;;4936739;29;20357;-69
2021/12/29 09:44:02;;;;;;;9.38;4.63;;;0.80;99.90;;;;;;4936851;29;20487;-68
2021/12/29 09:46:28;;;;;;;6.68;4.40;;;0.80;99.90;;;;;;4935203;29;20510;-68
2021/12/29 09:48:53;;;;;;;6.55;2.60;;;0.80;99.90;;;;;;4936803;29;20506;-71
2021/12/29 09:51:20;;;;;;;6.75;4.13;;;1.10;99.90;;;;;;4935347;29;20059;-71
2021/12/29 09:53:46;;;;;;;8.80;3.97;;;2.60;99.90;;;;;;4936273;29;20036;-71
2021/12/29 09:56:12;;;;;;;6.45;4.18;;;2.50;99.90;;;;;;4936333;29;20148;-72
2021/12/29 09:58:41;;;;;;;7.50;4.57;;;2.10;99.90;;;;;;4936180;29;20035;-72
2021/12/29 10:01:09;;;;;;;8.45;4.57;;;1.90;99.90;;;;;;4936253;29;20043;-71
2021/12/29 10:03:35;;;;;;;5.90;4.10;;;1.70;99.90;;;;;;4935155;29;20500;-70
2021/12/29 10:06:03;;;;;;;7.63;4.20;;;1.50;99.90;;;;;;4936441;29;20079;-73
2021/12/29 10:08:42;;;;;;;7.18;4.05;;;1.70;99.90;;;;;;4935746;29;20046;-69
2021/12/29 10:11:12;;;;;;;13.43;4.30;;;1.70;99.90;;;;;;4936055;29;20035;-68
2021/12/29 10:13:42;;;;;;;9.52;4.47;;;1.50;99.90;;;;;;4935772;29;20119;-67
2021/12/29 10:16:12;;;;;;;7.53;4.40;;;1.40;99.90;;;;;;4935849;29;20523;-66
2021/12/29 10:18:41;;;;;;;8.90;5.17;;;1.30;99.90;;;;;;4935913;29;20028;-66
2021/12/29 10:21:18;;;;;;;7.63;4.57;;;1.20;99.90;;;;;;4935871;29;20099;-68
2021/12/29 10:23:50;;;;;;;6.63;4.28;;;1.10;99.90;;;;;;4937987;29;20024;-68
2021/12/29 10:26:27;;;;;;;8.55;4.25;;;1.00;99.90;;;;;;4936857;29;20032;-67
2021/12/29 10:29:01;;;;;;;7.32;4.85;;;1.00;99.90;;;;;;4935682;29;20388;-70
2021/12/29 10:31:34;;;;;;;8.05;4.55;;;0.90;99.90;;;;;;4935530;29;20091;-69
2021/12/29 10:34:03;;;;;;;6.65;4.20;;;0.90;99.90;;;;;;4935580;29;20028;-68
2021/12/29 10:36:30;;;;;;;8.73;4.75;;;0.80;99.90;;;;;;4934974;29;20039;-68
2021/12/29 10:39:06;;;;;;;10.43;5.63;;;0.70;99.90;;;;;;4935416;29;20107;-68
2021/12/29 10:41:55;;;;;;;9.45;4.88;;;0.70;99.90;;;;;;4935407;29;20082;-68
2021/12/29 10:44:26;;;;;;;6.07;4.55;;;0.70;99.90;;;;;;4935405;29;20039;-68
2021/12/29 10:46:56;;;;;;;8.45;4.43;;;0.80;99.90;;;;;;4934945;29;20031;-74
2021/12/29 10:49:24;;;;;;;7.85;5.00;;;0.80;99.90;;;;;;4935005;29;20027;-71
2021/12/29 10:51:50;;;;;;;10.48;5.82;;;0.80;99.90;;;;;;4935129;29;20028;-71
2021/12/29 10:54:19;;;;;;;9.10;5.60;;;0.80;99.90;;;;;;4935193;29;20031;-71
2021/12/29 10:56:58;;;;;;;8.73;5.65;;;0.80;99.90;;;;;;4935106;29;20115;-72
2021/12/29 10:59:30;;;;;;;8.10;4.80;;;0.80;99.90;;;;;;4935303;29;20034;-71
2021/12/29 11:01:56;;;;;;;8.70;5.68;;;0.80;99.90;;;;;;4935338;29;20074;-71
2021/12/29 11:04:23;;;;;;;12.13;5.72;;;0.80;99.90;;;;;;4935245;29;20032;-71
2021/12/29 11:06:50;;;;;;;9.23;5.68;;;0.80;99.90;;;;;;4935088;29;20035;-71
2021/12/29 11:09:24;;;;;;;9.57;5.10;;;0.80;99.90;;;;;;4935065;29;20476;-71
2021/12/29 11:11:50;;;;;;;8.65;4.95;;;0.80;99.90;;;;;;4935281;29;20429;-71
2021/12/29 11:14:24;;;;;;;9.75;5.30;;;0.80;99.90;;;;;;4934749;29;20055;-71
2021/12/29 11:17:06;;;;;;;8.63;5.10;;;0.70;99.90;;;;;;4934836;29;20510;-71
2021/12/29 11:19:32;;;;;;;7.18;4.55;;;0.70;99.90;;;;;;4935217;29;20031;-71
2021/12/29 11:22:11;;;;;;;10.25;5.45;;;0.70;99.90;;;;;;4935193;29;20034;-71
2021/12/29 11:24:39;;;;;;;9.50;5.03;;;0.80;99.90;;;;;;4934773;29;20036;-71
2021/12/29 11:27:24;;;;;;;9.57;5.40;;;0.80;99.90;;;;;;4934887;29;20031;-71
2021/12/29 11:30:00;;;;;;;9.35;4.82;;;0.80;99.90;;;;;;4935053;29;20032;-71
2021/12/29 11:32:40;;;;;;;9.55;4.97;;;0.80;99.90;;;;;;4934845;29;20061;-71
2021/12/29 11:35:16;;;;;;;;;;;0.80;99.90;;;;;;4935239;29;20028;-68
2021/12/29 11:37:51;;;;;;;12.82;4.75;;;0.80;99.90;;;;;;4933888;29;20386;-68
2021/12/29 11:40:30;;;;;;;6.97;4.45;;;0.80;99.90;;;;;;4934954;29;20031;-68
2021/12/29 11:42:56;;;;;;;10.02;5.15;;;0.90;99.90;;;;;;4933334;29;20028;-68
2021/12/29 11:45:22;;;;;;;9.68;5.07;;;0.90;99.90;;;;;;4933456;29;20468;-68
2021/12/29 11:47:49;;;;;;;10.85;5.45;;;0.90;99.90;;;;;;4934564;29;20035;-68
2021/12/29 11:50:25;;;;;;;14.68;5.22;;;0.80;99.90;;;;;;4934586;29;20110;-68
2021/12/29 11:53:12;;;;;;;6.85;4.72;;;0.80;99.90;;;;;;4934680;29;20059;-68
2021/12/29 11:55:50;;;;;;;7.55;4.63;;;0.80;99.90;;;;;;4934335;29;20475;-68
2021/12/29 11:58:29;;;;;;;9.95;5.47;;;0.80;99.90;;;;;;4934557;29;20083;-69
2021/12/29 12:01:16;;;;;;;13.05;5.32;;;0.70;99.90;;;;;;4934601;29;20039;-68
2021/12/29 12:03:44;;;;;;;12.55;5.15;;;0.70;99.90;;;;;;4934212;29;20371;-68
2021/12/29 12:06:32;;;;;;;8.82;5.00;;;0.70;99.90;;;;;;4934273;29;20106;-68
2021/12/29 12:09:13;;;;;;;7.53;4.53;;;0.70;99.90;;;;;;4934427;29;20107;-69
2021/12/29 12:11:54;;;;;;;10.10;4.70;;;0.80;99.90;;;;;;4934250;29;20079;-68
2021/12/29 12:14:25;;;;;;;11.00;5.40;;;0.80;99.90;;;;;;4934456;29;20099;-68
2021/12/29 12:16:58;;;;;;;10.52;5.78;;;0.80;99.90;;;;;;4934250;29;20391;-68
2021/12/29 12:19:30;;;;;;;8.20;4.93;;;0.90;99.90;;;;;;4934682;29;20059;-69
2021/12/29 12:22:07;;;;;;;10.18;5.15;;;0.90;99.90;;;;;;4932344;29;20032;-68
2021/12/29 12:24:34;;;;;;;9.32;5.35;;;0.90;99.90;;;;;;4934477;29;20032;-68
2021/12/29 12:27:03;;;;;;;9.00;5.50;;;0.90;99.90;;;;;;4937025;29;20038;-68
2021/12/29 12:29:32;;;;;;;12.65;5.03;;;0.90;99.90;;;;;;4937926;29;20035;-68
2021/12/29 12:32:07;;;;;;;10.50;5.20;;;0.90;99.90;;;;;;4937878;29;20102;-68
2021/12/29 12:34:47;;;;;;;11.43;5.28;;;0.90;99.90;;;;;;4938193;29;20159;-69
2021/12/29 12:37:20;;;;;;;9.43;5.18;;;1.00;99.90;;;;;;4937661;29;20138;-68
2021/12/29 12:40:01;;;;;;;13.75;4.85;;;1.00;99.90;;;;;;4937573;29;20028;-68
2021/12/29 12:42:29;;;;;;;10.30;4.88;;;1.00;99.90;;;;;;4937733;29;20059;-68
2021/12/29 12:44:57;;;;;;;9.82;5.38;;;0.90;99.90;;;;;;4937354;29;20038;-68
2021/12/29 12:47:29;;;;;;;10.85;5.65;;;1.00;99.90;;;;;;4937508;29;20035;-68
2021/12/29 12:49:55;;;;;;;9.02;5.55;;;0.90;99.90;;;;;;4937459;29;20035;-68
2021/12/29 12:52:23;;;;;;;10.68;5.97;;;0.90;99.90;;;;;;4937759;29;20050;-68
2021/12/29 12:54:58;;;;;;;12.93;6.20;;;0.90;99.90;;;;;;4937574;29;20118;-68
2021/12/29 12:57:26;;;;;;;13.38;5.82;;;0.90;99.90;;;;;;4937352;29;20036;-68
2021/12/29 13:00:03;;;;;;;8.60;5.82;;;1.00;99.90;;;;;;4935931;29;20159;-68
2021/12/29 13:02:40;;;;;;;11.07;5.60;;;1.00;99.90;;;;;;4937375;29;20074;-69
2021/12/29 13:05:35;;;;;;;12.50;6.22;;;1.00;99.90;;;;;;4937190;29;20036;-67
2021/12/29 13:08:09;;;;;;;62.50;31.67;;;1.00;99.90;;;;;;4935207;29;20047;-70
2021/12/29 13:10:49;;;;;;;35.33;19.33;;;0.90;99.90;;;;;;4937192;29;20432;-70
2021/12/29 13:13:21;;;;;;;41.97;21.75;;;0.90;99.90;;;;;;4937103;29;20036;-69
2021/12/29 13:15:53;;;;;;;4.55;3.40;;;0.90;99.90;;;;;;4937109;29;20028;-74
2021/12/29 13:18:20;;;;;;;12.23;6.80;;;1.10;99.90;;;;;;4937058;29;20034;-69
2021/12/29 13:20:48;;;;;;;13.80;6.50;;;2.10;99.90;;;;;;4936554;29;20055;-69
2021/12/29 13:23:19;;;;;;;10.18;6.15;;;2.10;99.90;;;;;;4937055;29;20040;-69
2021/12/29 13:25:47;;;;;;;10.65;5.63;;;1.90;99.90;;;;;;4936644;29;20035;-69
2021/12/29 13:28:14;;;;;;;10.00;6.20;;;1.70;99.90;;;;;;4936793;29;20038;-69
2021/12/29 13:31:16;;;;;;;10.50;6.13;;;1.60;99.90;;;;;;4936917;29;20043;-69
2021/12/29 13:33:46;;;;;;;10.05;5.68;;;1.40;99.90;;;;;;4915972;29;20051;-69
2021/12/29 13:36:13;;;;;;;8.90;5.70;;;1.30;99.90;;;;;;4936852;29;20035;-69
2021/12/29 13:38:40;;;;;;;10.38;6.05;;;1.30;99.90;;;;;;4934990;29;20299;-69
2021/12/29 13:41:19;;;;;;;8.63;5.60;;;1.20;99.90;;;;;;4936567;29;20024;-69
2021/12/29 13:43:48;;;;;;;12.70;6.07;;;1.20;99.90;;;;;;4936221;29;20032;-69
2021/12/29 13:46:25;;;;;;;9.00;5.22;;;1.20;99.90;;;;;;4936481;29;20510;-70
2021/12/29 13:48:54;;;;;;;9.00;5.35;;;1.20;99.90;;;;;;4936457;29;20038;-68
2021/12/29 13:51:28;;;;;;;8.63;5.53;;;1.50;99.90;;;;;;4939186;29;20129;-68
2021/12/29 13:54:00;;;;;;;9.27;5.05;;;1.50;99.90;;;;;;4936659;29;20034;-66
2021/12/29 13:56:37;;;;;;;10.48;5.60;;;1.40;99.90;;;;;;4936353;29;20067;-66
2021/12/29 13:59:12;;;;;;;7.55;5.28;;;1.20;99.90;;;;;;4936373;29;20019;-66
2021/12/29 14:01:41;;;;;;;9.18;5.25;;;1.20;99.90;;;;;;4936561;29;20035;-66
2021/12/29 14:04:10;;;;;;;9.03;5.50;;;1.10;99.90;;;;;;4935509;29;20459;-69
2021/12/29 14:06:36;;;;;;;9.93;5.43;;;1.10;99.90;;;;;;4935692;29;20035;-68